Anstruther, United Kingdom
Current Conditions -  °F | °C
As of 1:50 PM on Saturday 25 Oct 2014 (Local Time) from EGQL Reporting Station
Few Clouds Few Clouds  
Wind Chill: 55°   Ceiling: Unl
Heat Index: 55°   Visibility: 6mi
Dew Point: 45°   Wind: 29mph
Humidity: 67%   Direction: 250°WSW
Pressure: 29.62"   Gusts: NA
Location:  56.22°N, 2.7°W
Report Text: EGQL 251250Z AUTO 25025KT 9999 FEW028/// 13/07 Q1003
Loading
Personal Weather Stations






























Interactive Weather Map
Tropical Storm Tracking
New forecast layout! Learn more

10-Day Weather Forecast

Advertisements
Track Severe Weather on mobile